Time,TemperatureF,DewpointF,PressureIn,WindDirection,WindDirectionDegrees,WindSpeedMPH,WindSpeedGustMPH,Humidity,HourlyPrecipIn,Conditions,Clouds,dailyrainin,SoftwareType,DateUTC
2013-07-09 00:22:00,76.0,74.0,30.15,North,0,0.0,0.0,92,99.99,,,-99.99,,2013-07-09 04:22:00,
2013-07-09 00:42:00,76.0,74.0,30.15,SSE,162,1.0,2.0,94,99.99,,,-99.99,,2013-07-09 04:42:00,
2013-07-09 01:02:00,76.0,75.0,30.15,SE,146,0.0,0.0,96,99.99,,,-99.99,,2013-07-09 05:02:00,
2013-07-09 01:11:00,75.0,74.0,30.15,North,0,0.0,0.0,96,99.99,,,-99.99,,2013-07-09 05:11:00,
2013-07-09 01:33:00,75.0,75.0,30.15,North,0,0.0,0.0,99,99.99,,,-99.99,,2013-07-09 05:33:00,
2013-07-09 01:42:00,75.0,75.0,30.14,North,0,0.0,0.0,99,99.99,,,-99.99,,2013-07-09 05:42:00,
2013-07-09 02:01:00,75.0,75.0,30.14,North,0,0.0,0.0,100,99.99,,,-99.99,,2013-07-09 06:01:00,
2013-07-09 02:11:00,75.0,75.0,30.14,North,0,0.0,0.0,100,99.99,,,-99.99,,2013-07-09 06:11:00,
2013-07-09 02:22:00,75.0,75.0,30.14,North,0,0.0,0.0,100,99.99,,,-99.99,,2013-07-09 06:22:00,
2013-07-09 02:43:00,74.0,74.0,30.13,North,0,0.0,0.0,100,99.99,,,-99.99,,2013-07-09 06:43:00,
2013-07-09 02:53:00,74.0,74.0,30.12,ESE,121,0.0,1.0,100,99.99,,,-99.99,,2013-07-09 06:53:00,
2013-07-09 03:02:00,74.0,74.0,30.12,North,0,0.0,0.0,100,99.99,,,-99.99,,2013-07-09 07:02:00,
2013-07-09 03:12:00,74.0,74.0,30.12,North,0,0.0,0.0,100,99.99,,,-99.99,,2013-07-09 07:12:00,
2013-07-09 03:22:00,74.0,74.0,30.12,North,0,0.0,0.0,100,99.99,,,-99.99,,2013-07-09 07:22:00,
2013-07-09 03:34:00,74.0,74.0,30.11,North,0,0.0,0.0,100,99.99,,,-99.99,,2013-07-09 07:34:00,
2013-07-09 03:43:00,74.0,74.0,30.11,North,0,0.0,0.0,100,99.99,,,-99.99,,2013-07-09 07:43:00,
2013-07-09 03:53:00,74.0,74.0,30.11,North,0,0.0,0.0,100,99.99,,,-99.99,,2013-07-09 07:53:00,
2013-07-09 04:01:00,74.0,74.0,30.11,North,0,0.0,0.0,100,99.99,,,-99.99,,2013-07-09 08:01:00,
2013-07-09 04:22:00,74.0,74.0,30.11,North,0,0.0,0.0,100,99.99,,,-99.99,,2013-07-09 08:22:00,
2013-07-09 04:33:00,74.0,74.0,30.11,North,0,0.0,0.0,100,99.99,,,-99.99,,2013-07-09 08:33:00,
2013-07-09 04:43:00,73.0,73.0,30.10,North,0,0.0,0.0,100,99.99,,,-99.99,,2013-07-09 08:43:00,
2013-07-09 04:52:00,74.0,74.0,30.10,North,0,0.0,0.0,100,99.99,,,-99.99,,2013-07-09 08:52:00,
2013-07-09 05:02:00,73.0,73.0,30.10,North,0,0.0,0.0,100,99.99,,,-99.99,,2013-07-09 09:02:00,
2013-07-09 05:12:00,73.0,73.0,30.10,North,0,0.0,0.0,100,99.99,,,-99.99,,2013-07-09 09:12:00,
2013-07-09 05:42:00,73.0,73.0,30.11,North,0,0.0,0.0,100,99.99,,,-99.99,,2013-07-09 09:42:00,
2013-07-09 06:33:00,73.0,73.0,30.12,North,0,0.0,0.0,100,99.99,,,-99.99,,2013-07-09 10:33:00,
2013-07-09 06:42:00,73.0,73.0,30.12,North,0,0.0,0.0,100,99.99,,,-99.99,,2013-07-09 10:42:00,
2013-07-09 06:52:00,73.0,73.0,30.12,North,0,0.0,0.0,100,99.99,,,-99.99,,2013-07-09 10:52:00,
2013-07-09 08:33:00,77.0,77.0,30.14,ENE,76,3.0,4.0,100,99.99,,,-99.99,,2013-07-09 12:33:00,
2013-07-09 08:52:00,79.0,79.0,30.14,ESE,107,3.0,6.0,100,99.99,,,-99.99,,2013-07-09 12:52:00,
2013-07-09 09:43:00,81.0,77.0,30.15,ENE,62,4.0,7.0,89,99.99,,,-99.99,,2013-07-09 13:43:00,
2013-07-09 09:53:00,81.0,77.0,30.15,ENE,69,4.0,7.0,89,99.99,,,-99.99,,2013-07-09 13:53:00,
2013-07-09 10:34:00,83.0,75.0,30.15,NE,53,4.0,7.0,76,99.99,,,-99.99,,2013-07-09 14:34:00,
2013-07-09 10:43:00,83.0,73.0,30.15,ENE,58,4.0,7.0,71,99.99,,,-99.99,,2013-07-09 14:43:00,
2013-07-09 10:53:00,84.0,73.0,30.15,SE,135,5.0,9.0,69,99.99,,,-99.99,,2013-07-09 14:53:00,
2013-07-09 12:43:00,87.0,67.0,30.14,NE,56,4.0,9.0,52,99.99,,,-99.99,,2013-07-09 16:43:00,
2013-07-09 14:02:00,89.0,64.0,30.13,ENE,69,8.0,15.0,44,99.99,,,-99.99,,2013-07-09 18:02:00,
2013-07-09 14:32:00,89.0,65.0,30.12,ENE,65,7.0,12.0,45,99.99,,,-99.99,,2013-07-09 18:32:00,
2013-07-09 15:52:00,89.0,64.0,30.08,East,83,7.0,14.0,44,99.99,,,-99.99,,2013-07-09 19:52:00,
2013-07-09 16:01:00,89.0,68.0,30.08,SE,129,8.0,17.0,50,99.99,,,-99.99,,2013-07-09 20:01:00,
2013-07-09 16:43:00,84.0,68.0,30.07,SSE,162,8.0,14.0,59,99.99,,,-99.99,,2013-07-09 20:43:00,
2013-07-09 16:52:00,84.0,69.0,30.08,SE,138,8.0,14.0,60,99.99,,,-99.99,,2013-07-09 20:52:00,
2013-07-09 17:32:00,84.0,69.0,30.07,SSE,150,5.0,9.0,60,99.99,,,-99.99,,2013-07-09 21:32:00,
2013-07-09 17:52:00,85.0,69.0,30.06,ESE,121,5.0,10.0,58,99.99,,,-99.99,,2013-07-09 21:52:00,
2013-07-09 18:33:00,84.0,70.0,30.06,SSE,159,4.0,8.0,62,99.99,,,-99.99,,2013-07-09 22:33:00,
2013-07-09 18:42:00,84.0,70.0,30.06,SSE,150,4.0,6.0,63,99.99,,,-99.99,,2013-07-09 22:42:00,
2013-07-09 18:53:00,84.0,70.0,30.06,ESE,108,3.0,7.0,63,99.99,,,-99.99,,2013-07-09 22:53:00,
2013-07-09 19:33:00,84.0,70.0,30.06,South,174,5.0,10.0,62,99.99,,,-99.99,,2013-07-09 23:33:00,
2013-07-09 19:43:00,84.0,70.0,30.06,East,90,3.0,6.0,64,99.99,,,-99.99,,2013-07-09 23:43:00,
2013-07-09 19:52:00,83.0,70.0,30.06,SE,139,4.0,7.0,64,99.99,,,-99.99,,2013-07-09 23:52:00,
2013-07-09 20:01:00,83.0,70.0,30.06,ESE,105,3.0,6.0,65,99.99,,,-99.99,,2013-07-10 00:01:00,
2013-07-09 20:11:00,83.0,70.0,30.06,East,94,3.0,6.0,66,99.99,,,-99.99,,2013-07-10 00:11:00,
2013-07-09 20:22:00,83.0,70.0,30.06,SE,127,3.0,5.0,66,99.99,,,-99.99,,2013-07-10 00:22:00,
2013-07-09 20:33:00,83.0,72.0,30.06,ESE,104,4.0,7.0,69,99.99,,,-99.99,,2013-07-10 00:33:00,
2013-07-09 20:42:00,82.0,72.0,30.06,SE,139,3.0,6.0,72,99.99,,,-99.99,,2013-07-10 00:42:00,
2013-07-09 20:52:00,82.0,73.0,30.06,ESE,107,3.0,5.0,75,99.99,,,-99.99,,2013-07-10 00:52:00,
2013-07-09 21:01:00,81.0,74.0,30.06,ESE,114,3.0,5.0,80,99.99,,,-99.99,,2013-07-10 01:01:00,
2013-07-09 21:11:00,81.0,74.0,30.06,ESE,114,3.0,5.0,80,99.99,,,-99.99,,2013-07-10 01:11:00,
2013-07-09 21:22:00,80.0,74.0,30.07,East,97,2.0,4.0,82,99.99,,,-99.99,,2013-07-10 01:22:00,
2013-07-09 21:53:00,79.0,74.0,30.07,SE,128,3.0,4.0,85,99.99,,,-99.99,,2013-07-10 01:53:00,
2013-07-09 23:43:00,77.0,76.0,30.09,ENE,68,0.0,1.0,96,99.99,,,-99.99,,2013-07-10 03:43:00,
2013-07-09 23:52:00,76.0,75.0,30.09,ESE,107,0.0,1.0,96,99.99,,,-99.99,,2013-07-10 03:52:00,